Time;durP1;ratioP1;P1;durP2;ratioP2;P2;SDS_P1;SDS_P2;PMS_P1;PMS_P2;Temp;Humidity;BMP_temperature;BMP_pressure;BME280_temperature;BME280_humidity;BME280_pressure;Samples;Min_cycle;Max_cycle;Signal;HPM_P1;HPM_P2
2021/07/27 00:02:14;;;;;;;10.60;6.10;;;;;;;17.17;89.43;98532.44;5100892;28;20020;-66
2021/07/27 00:04:39;;;;;;;15.02;6.22;;;;;;;17.21;89.47;98544.66;5098734;28;20215;-66
2021/07/27 00:07:04;;;;;;;12.15;5.82;;;;;;;17.32;89.41;98567.22;5087271;28;20064;-66
2021/07/27 00:09:30;;;;;;;11.18;6.28;;;;;;;17.38;89.15;98559.84;5087385;28;20016;-66
2021/07/27 00:11:55;;;;;;;9.57;5.78;;;;;;;17.43;89.10;98555.16;5095931;28;20384;-66
2021/07/27 00:14:21;;;;;;;11.75;5.90;;;;;;;17.40;89.43;98546.47;5096100;28;20087;-66
2021/07/27 00:16:46;;;;;;;11.63;6.00;;;;;;;17.48;89.38;98547.84;5097737;28;20028;-66
2021/07/27 00:19:11;;;;;;;11.20;6.03;;;;;;;17.58;88.70;98553.56;5100823;28;20094;-66
2021/07/27 00:21:37;;;;;;;11.18;5.68;;;;;;;17.54;88.80;98541.34;5087240;28;20211;-66
2021/07/27 00:24:02;;;;;;;16.52;6.20;;;;;;;17.56;88.92;98539.50;5088333;28;20024;-66
2021/07/27 00:26:28;;;;;;;12.15;6.47;;;;;;;17.52;88.97;98546.75;5098692;28;20079;-66
2021/07/27 00:28:53;;;;;;;12.65;6.05;;;;;;;17.53;88.65;98535.16;5098501;28;20020;-66
2021/07/27 00:31:19;;;;;;;19.80;7.65;;;;;;;17.51;88.74;98536.19;5092227;28;20362;-66
2021/07/27 00:33:46;;;;;;;16.85;7.20;;;;;;;17.48;89.03;98539.00;5087139;28;20326;-66
2021/07/27 00:36:12;;;;;;;14.57;6.50;;;;;;;17.50;88.87;98539.78;5088257;28;20024;-66
2021/07/27 00:38:37;;;;;;;10.55;6.45;;;;;;;17.44;88.94;98532.09;5088230;28;20074;-66
2021/07/27 00:41:03;;;;;;;12.85;6.80;;;;;;;17.33;89.30;98537.06;5095192;28;20027;-66
2021/07/27 00:43:29;;;;;;;9.68;6.07;;;;;;;17.36;89.02;98542.19;5101137;28;20027;-66
2021/07/27 00:45:54;;;;;;;12.30;7.45;;;;;;;17.30;89.15;98542.53;5101131;28;20063;-66
2021/07/27 00:48:19;;;;;;;12.07;6.45;;;;;;;17.22;89.24;98534.91;5093741;28;20075;-65
2021/07/27 00:50:45;;;;;;;14.05;7.28;;;;;;;17.22;89.30;98543.72;5090231;28;20075;-65
2021/07/27 00:53:11;;;;;;;14.00;7.15;;;;;;;17.20;89.22;98605.91;5091202;28;20015;-65
2021/07/27 00:55:39;;;;;;;12.05;7.00;;;;;;;17.13;89.22;98596.50;5089559;28;20024;-65
2021/07/27 00:58:04;;;;;;;13.98;8.38;;;;;;;17.13;89.28;98592.06;5090603;28;20028;-65
2021/07/27 01:00:30;;;;;;;15.63;8.07;;;;;;;17.05;89.74;98580.88;5092548;28;20091;-65
2021/07/27 01:02:55;;;;;;;23.25;7.65;;;;;;;17.02;90.04;98570.38;5097774;23;20049;-83
2021/07/27 01:05:21;;;;;;;10.50;7.38;;;;;;;17.01;90.34;98568.66;5089810;28;20196;-83
2021/07/27 01:07:46;;;;;;;14.77;7.65;;;;;;;17.05;90.25;98580.88;5072687;28;20046;-83
2021/07/27 01:10:13;;;;;;;12.65;7.78;;;;;;;17.08;90.16;98580.75;5071424;28;20012;-83
2021/07/27 01:12:40;;;;;;;11.93;7.13;;;;;;;17.07;90.15;98568.41;5073662;28;20020;-83
2021/07/27 01:15:07;;;;;;;12.63;7.75;;;;;;;17.06;90.28;98569.31;5092740;28;20016;-83
2021/07/27 01:17:32;;;;;;;13.80;7.45;;;;;;;17.12;89.96;98566.38;5073584;28;20020;-83
2021/07/27 01:20:05;;;;;;;12.10;7.80;;;;;;;17.12;89.87;98561.03;5071169;28;20081;-83
2021/07/27 01:43:50;;;;;;;14.32;7.15;;;;;;;17.22;89.91;98583.63;5101436;28;20044;-83
2021/07/27 01:46:16;;;;;;;16.38;7.68;;;;;;;17.25;89.40;98575.50;5075982;28;20096;-83
2021/07/27 01:48:43;;;;;;;14.25;7.38;;;;;;;17.18;89.43;98582.03;5071892;28;20114;-83
2021/07/27 01:51:09;;;;;;;11.93;7.50;;;;;;;17.09;90.12;98586.94;5071392;28;20019;-83
2021/07/27 01:53:43;;;;;;;13.60;7.93;;;;;;;17.10;90.42;98589.53;5091168;28;20012;-83
2021/07/27 01:56:10;;;;;;;12.63;7.63;;;;;;;17.08;90.29;98580.75;5071435;28;20083;-83
2021/07/27 01:58:35;;;;;;;10.77;7.00;;;;;;;17.06;90.42;98576.44;5089630;28;20024;-83
2021/07/27 02:01:00;;;;;;;12.13;7.55;;;;;;;17.08;90.43;98586.06;5077532;28;20146;-83
2021/07/27 02:03:26;;;;;;;18.48;8.45;;;;;;;17.07;90.52;98581.69;5078884;28;20036;-83
2021/07/27 02:05:51;;;;;;;14.40;7.80;;;;;;;17.06;90.78;98577.28;5076050;28;20038;-83
2021/07/27 02:08:17;;;;;;;15.10;7.90;;;;;;;17.14;90.65;98590.22;5071502;28;20023;-83
2021/07/27 02:10:47;;;;;;;13.32;7.32;;;;;;;17.16;90.24;98581.28;5088200;28;20013;-83
2021/07/27 02:13:25;;;;;;;13.30;7.97;;;;;;;17.22;90.40;98578.28;5089194;28;20087;-83
2021/07/27 02:15:50;;;;;;;11.90;7.35;;;;;;;17.21;90.75;98570.38;5094278;28;20092;-83
2021/07/27 02:18:15;;;;;;;15.07;7.65;;;;;;;17.21;90.39;98603.19;5083258;28;20031;-83
2021/07/27 02:20:44;;;;;;;13.30;7.45;;;;;;;17.25;89.85;98587.97;5070981;28;20066;-83
2021/07/27 02:23:10;;;;;;;10.43;6.93;;;;;;;17.25;90.18;98579.97;5066121;28;20016;-83
2021/07/27 02:25:35;;;;;;;14.60;7.88;;;;;;;17.21;90.27;98571.25;5077830;28;20022;-83
2021/07/27 02:28:00;;;;;;;17.52;7.95;;;;;;;17.13;91.01;98573.44;5081149;28;20126;-83
2021/07/27 02:30:27;;;;;;;12.05;7.15;;;;;;;17.20;90.70;98584.63;5074289;28;20048;-84
2021/07/27 02:32:52;;;;;;;12.43;7.82;;;;;;;17.21;90.74;98581.91;5070006;28;20063;-84
2021/07/27 02:35:21;;;;;;;14.43;7.75;;;;;;;17.15;91.05;98576.88;5073500;28;20012;-84
2021/07/27 02:37:46;;;;;;;11.82;7.65;;;;;;;17.17;90.68;98576.78;5069676;28;20051;-84
2021/07/27 02:40:12;;;;;;;13.00;6.93;;;;;;;17.16;90.58;98583.94;5091129;28;20024;-84
2021/07/27 02:42:38;;;;;;;12.70;7.47;;;;;;;17.15;90.56;98576.03;5080923;28;20258;-84
2021/07/27 02:45:06;;;;;;;13.77;7.82;;;;;;;17.07;91.56;98571.06;5071348;28;20012;-84
2021/07/27 02:47:32;;;;;;;12.30;8.07;;;;;;;17.07;91.10;98568.41;5087708;28;20024;-84
2021/07/27 02:49:58;;;;;;;15.18;7.70;;;;;;;17.10;90.90;98562.94;5080784;28;20035;-84
2021/07/27 02:52:23;;;;;;;13.38;8.10;;;;;;;17.10;90.54;98568.25;5074880;28;20322;-84
2021/07/27 02:54:48;;;;;;;15.98;8.50;;;;;;;16.99;90.84;98553.69;5082775;28;20250;-84
2021/07/27 02:57:17;;;;;;;14.55;8.45;;;;;;;17.00;90.90;98561.59;5098012;28;20342;-84
2021/07/27 02:59:42;;;;;;;12.93;8.35;;;;;;;17.00;90.92;98561.59;5072908;28;20044;-84
2021/07/27 03:02:08;;;;;;;19.90;8.93;;;;;;;16.90;91.21;98560.31;5069586;28;20299;-84
2021/07/27 03:04:33;;;;;;;14.20;7.97;;;;;;;16.87;91.08;98554.28;5070639;28;20048;-84
2021/07/27 03:06:59;;;;;;;13.30;7.95;;;;;;;16.77;91.05;98551.16;5079719;28;20061;-84
2021/07/27 03:11:50;;;;;;;14.57;8.50;;;;;;;16.67;91.25;98649.97;5090499;28;20013;-84
2021/07/27 03:14:16;;;;;;;12.32;8.20;;;;;;;16.59;91.38;98682.22;5092483;28;20070;-84
2021/07/27 03:16:41;;;;;;;14.00;8.15;;;;;;;16.55;91.23;98704.53;5071287;28;20338;-84
2021/07/27 03:19:07;;;;;;;15.13;8.52;;;;;;;16.52;91.26;98739.19;5067681;28;20022;-84
2021/07/27 03:21:32;;;;;;;15.57;8.27;;;;;;;16.46;91.16;98750.06;5071310;28;20069;-84
2021/07/27 03:23:58;;;;;;;12.98;7.25;;;;;;;16.45;91.26;98764.28;5076347;28;20020;-84
2021/07/27 03:26:24;;;;;;;14.90;8.05;;;;;;;16.38;91.24;98714.97;5073768;28;20105;-84
2021/07/27 03:28:50;;;;;;;17.45;8.23;;;;;;;16.36;91.46;98790.34;5071191;28;20046;-84
2021/07/27 03:31:16;;;;;;;17.17;7.70;;;;;;;16.25;91.59;98772.16;5068801;28;20330;-84
2021/07/27 03:33:42;;;;;;;13.50;8.40;;;;;;;16.25;91.81;98777.47;5067517;28;20016;-84
2021/07/27 03:36:08;;;;;;;15.80;7.72;;;;;;;16.20;91.47;98794.53;5052902;28;20304;-84
2021/07/27 03:38:35;;;;;;;15.52;9.00;;;;;;;16.21;91.66;98829.00;5079327;28;20034;-84
2021/07/27 03:41:08;;;;;;;14.98;8.15;;;;;;;16.14;91.87;98830.13;5069506;28;20092;-84
2021/07/27 03:43:34;;;;;;;13.88;8.13;;;;;;;16.06;92.24;98845.50;5090303;28;20066;-84
2021/07/27 03:46:00;;;;;;;13.40;7.75;;;;;;;15.90;91.68;98844.34;5079173;28;20021;-84
2021/07/27 03:48:26;;;;;;;12.90;7.43;;;;;;;15.82;91.88;98883.56;5069729;28;20036;-84
2021/07/27 03:50:51;;;;;;;12.10;7.15;;;;;;;15.73;91.60;98868.00;5069641;28;20012;-84
2021/07/27 03:53:17;;;;;;;16.90;7.78;;;;;;;15.72;92.09;98897.25;5070112;28;20016;-84
2021/07/27 03:55:43;;;;;;;11.57;7.70;;;;;;;15.65;91.98;98885.97;5071963;28;20012;-83
2021/07/27 03:58:09;;;;;;;15.50;8.88;;;;;;;15.66;92.19;98892.16;5081018;28;20023;-84
2021/07/27 04:00:35;;;;;;;13.65;7.75;;;;;;;15.53;91.49;98907.63;5080185;28;20024;-84
2021/07/27 04:03:05;;;;;;;12.52;7.55;;;;;;;15.48;91.70;98928.16;5069318;28;20051;-84
2021/07/27 04:05:32;;;;;;;17.20;8.60;;;;;;;15.40;91.61;98911.63;5072856;28;20020;-84
2021/07/27 04:07:58;;;;;;;16.38;8.18;;;;;;;15.45;91.72;98936.22;5072891;28;20062;-84
2021/07/27 04:10:23;;;;;;;13.55;8.07;;;;;;;15.38;92.44;98970.97;5069123;28;20024;-84
2021/07/27 04:12:49;;;;;;;17.40;8.90;;;;;;;15.39;91.88;98947.03;5068987;28;20016;-84
2021/07/27 04:15:15;;;;;;;12.02;8.88;;;;;;;15.39;91.80;98956.75;5083544;28;20031;-84
2021/07/27 04:17:40;;;;;;;13.43;9.00;;;;;;;15.40;92.23;98975.28;5087297;28;20016;-84
2021/07/27 04:20:06;;;;;;;15.30;9.10;;;;;;;15.36;92.32;98973.63;5090087;28;20034;-84
2021/07/27 04:22:31;;;;;;;21.25;8.82;;;;;;;15.30;92.22;98979.13;5090064;28;20335;-84
2021/07/27 04:24:57;;;;;;;21.30;8.65;;;;;;;15.25;91.97;98970.44;5090105;28;20023;-84
2021/07/27 04:27:24;;;;;;;15.38;8.75;;;;;;;15.38;91.91;99008.09;5090043;28;20219;-84
2021/07/27 04:29:50;;;;;;;17.80;8.43;;;;;;;15.30;92.12;98960.56;5090010;28;20043;-84
2021/07/27 04:32:15;;;;;;;20.77;8.80;;;;;;;15.40;91.83;99023.03;5089937;28;20027;-84
2021/07/27 04:34:41;;;;;;;15.95;8.27;;;;;;;15.43;91.20;99028.22;5089897;28;20099;-84
2021/07/27 04:37:06;;;;;;;14.18;8.55;;;;;;;15.37;90.78;98975.38;5089862;28;20020;-84
2021/07/27 04:39:31;;;;;;;12.55;7.93;;;;;;;15.41;91.30;98954.94;5089746;28;20065;-84
2021/07/27 04:41:57;;;;;;;14.98;8.82;;;;;;;15.61;91.21;98979.88;5089769;28;20020;-84
2021/07/27 04:44:22;;;;;;;12.18;8.00;;;;;;;15.77;91.21;98933.31;5089715;28;20129;-84
2021/07/27 04:46:47;;;;;;;17.80;9.02;;;;;;;15.88;91.17;99000.16;5089646;28;20020;-84
2021/07/27 04:49:13;;;;;;;19.30;8.95;;;;;;;16.04;91.23;98940.28;5089610;28;20188;-84
2021/07/27 04:51:39;;;;;;;13.32;7.47;;;;;;;16.24;90.67;98950.19;5089940;28;20031;-84
2021/07/27 04:54:05;;;;;;;16.48;8.40;;;;;;;16.34;90.18;98947.13;5089494;28;20089;-84
2021/07/27 04:56:32;;;;;;;15.63;9.43;;;;;;;16.28;90.22;98915.50;5089765;28;20038;-84
2021/07/27 04:58:57;;;;;;;15.68;8.93;;;;;;;16.30;90.38;98981.84;5089420;28;20206;-84
2021/07/27 05:01:23;;;;;;;17.95;7.53;;;;;;;16.68;89.65;98942.28;5089351;28;20062;-84
2021/07/27 05:03:48;;;;;;;15.82;8.00;;;;;;;17.15;88.72;98937.75;5089133;28;20051;-84
2021/07/27 05:06:13;;;;;;;12.77;7.18;;;;;;;17.64;87.61;98920.63;5089313;28;20219;-84
2021/07/27 05:08:42;;;;;;;14.75;7.45;;;;;;;17.65;86.63;98911.72;5089257;28;20089;-84
2021/07/27 05:11:07;;;;;;;16.60;7.63;;;;;;;17.43;86.93;98878.97;5089196;28;20012;-84
2021/07/27 05:13:32;;;;;;;13.05;7.57;;;;;;;17.03;87.75;98899.19;5089198;28;20105;-84
2021/07/27 05:16:02;;;;;;;14.85;7.45;;;;;;;16.85;88.82;98875.16;5089127;28;20096;-84
2021/07/27 05:18:28;;;;;;;15.93;8.65;;;;;;;16.80;89.81;98883.31;5089042;28;20039;-84
2021/07/27 05:20:53;;;;;;;15.85;7.95;;;;;;;16.86;89.65;98875.09;5088964;28;20082;-84
2021/07/27 05:23:19;;;;;;;16.73;7.68;;;;;;;16.76;89.77;98851.59;5088953;28;20099;-84
2021/07/27 05:25:44;;;;;;;15.50;8.48;;;;;;;16.67;90.73;98850.19;5088936;28;20028;-84
2021/07/27 05:28:09;;;;;;;11.02;6.85;;;;;;;16.80;90.85;98854.06;5088802;28;20025;-84
2021/07/27 05:30:35;;;;;;;17.10;8.32;;;;;;;16.82;91.33;98854.91;5087755;28;20016;-84
2021/07/27 05:33:05;;;;;;;15.32;7.78;;;;;;;16.93;91.20;98857.13;5088800;28;20039;-84
2021/07/27 05:35:30;;;;;;;15.32;8.35;;;;;;;17.00;91.77;98872.72;5106788;28;20027;-84
2021/07/27 05:37:55;;;;;;;16.90;9.02;;;;;;;17.07;91.75;98866.25;5106734;28;20020;-84
2021/07/27 05:40:21;;;;;;;17.27;8.55;;;;;;;17.10;91.38;98865.25;5106626;28;20032;-84
2021/07/27 05:42:46;;;;;;;13.27;8.48;;;;;;;17.18;91.04;98879.09;5088609;28;20046;-84
2021/07/27 05:45:12;;;;;;;15.05;8.75;;;;;;;17.28;91.01;98875.97;5106612;28;20023;-84
2021/07/27 05:47:37;;;;;;;17.67;8.98;;;;;;;17.33;90.47;98866.97;5088506;28;20024;-84
2021/07/27 05:50:04;;;;;;;17.10;8.77;;;;;;;17.41;91.17;98859.50;5088463;28;20121;-84
2021/07/27 05:52:29;;;;;;;18.33;9.20;;;;;;;17.50;91.03;98859.13;5088449;28;20027;-84
2021/07/27 05:54:54;;;;;;;17.48;8.50;;;;;;;17.54;90.87;98876.69;5088366;28;20024;-84
2021/07/27 05:57:20;;;;;;;15.75;9.00;;;;;;;17.62;90.82;98874.59;5088354;28;20098;-84
2021/07/27 05:59:45;;;;;;;15.73;8.95;;;;;;;17.73;90.72;98874.97;5088244;28;20326;-84
2021/07/27 06:02:11;;;;;;;17.48;8.68;;;;;;;17.85;90.36;98877.09;5088193;28;20055;-84
2021/07/27 06:04:37;;;;;;;15.10;9.30;;;;;;;18.03;89.63;98881.59;5088032;28;20346;-84
2021/07/27 06:07:03;;;;;;;21.15;9.73;;;;;;;18.16;89.46;98877.44;5088142;28;20106;-84
2021/07/27 06:09:28;;;;;;;12.98;8.02;;;;;;;18.26;90.20;98878.75;5088081;28;20095;-84
2021/07/27 06:11:54;;;;;;;16.17;8.60;;;;;;;18.27;89.89;98876.00;5088058;28;20270;-84
2021/07/27 06:14:19;;;;;;;17.65;8.25;;;;;;;18.21;89.04;98870.09;5088344;28;20303;-84
2021/07/27 06:16:44;;;;;;;12.30;7.72;;;;;;;18.30;88.73;98869.66;5087971;28;20024;-84
2021/07/27 06:19:10;;;;;;;16.88;7.63;;;;;;;18.30;87.15;98859.00;5087859;28;20349;-84
2021/07/27 06:21:38;;;;;;;12.65;7.53;;;;;;;18.28;86.22;98858.19;5087821;28;20322;-84
2021/07/27 06:24:08;;;;;;;16.90;7.25;;;;;;;18.34;85.97;98865.91;5087846;28;20208;-84
2021/07/27 06:26:33;;;;;;;17.80;8.27;;;;;;;18.39;86.50;98870.16;5087705;28;20020;-84
2021/07/27 06:29:01;;;;;;;13.20;7.80;;;;;;;18.50;86.68;98858.97;5087726;28;20047;-84
2021/07/27 06:31:26;;;;;;;15.07;8.75;;;;;;;18.63;87.90;98868.09;5105687;28;20086;-84
2021/07/27 06:33:52;;;;;;;15.00;8.15;;;;;;;18.63;87.28;98868.97;5087585;28;20377;-84
2021/07/27 06:36:17;;;;;;;11.52;7.75;;;;;;;18.72;86.61;98867.66;5087951;28;20307;-84
2021/07/27 06:38:43;;;;;;;13.40;8.05;;;;;;;18.83;84.25;98862.69;5087523;28;20053;-84
2021/07/27 06:41:09;;;;;;;15.45;8.52;;;;;;;18.92;84.35;98870.25;5087155;28;20024;-84
2021/07/27 06:43:36;;;;;;;14.45;7.75;;;;;;;19.04;84.88;98865.16;5087448;28;20085;-84
2021/07/27 06:46:01;;;;;;;14.88;8.50;;;;;;;19.08;84.06;98877.41;5087374;28;20024;-84
2021/07/27 06:48:27;;;;;;;17.75;8.52;;;;;;;19.04;84.52;98872.28;5087347;28;20278;-84
2021/07/27 06:50:53;;;;;;;13.60;7.82;;;;;;;19.18;85.11;98888.50;5087336;28;20319;-84
2021/07/27 06:53:19;;;;;;;13.10;7.80;;;;;;;19.23;83.32;98881.09;5087311;28;20059;-84
2021/07/27 06:55:45;;;;;;;11.75;8.13;;;;;;;19.31;84.07;98878.09;5105254;28;20265;-84
2021/07/27 06:58:10;;;;;;;15.93;9.15;;;;;;;19.37;83.49;98884.00;5087136;28;20027;-84
2021/07/27 07:00:40;;;;;;;16.55;7.88;;;;;;;19.54;85.04;98881.31;5086985;28;20024;-84
2021/07/27 07:03:06;;;;;;;16.08;8.32;;;;;;;19.78;82.29;98885.41;5086775;28;20067;-84
2021/07/27 07:05:32;;;;;;;17.17;9.48;;;;;;;19.89;81.29;99019.28;5086962;28;20028;-84
2021/07/27 07:07:57;;;;;;;13.95;8.30;;;;;;;19.99;80.47;99001.00;5105022;28;20058;-84
2021/07/27 07:10:22;;;;;;;16.20;8.50;;;;;;;20.00;80.96;99003.56;5086924;28;20016;-84
2021/07/27 07:12:48;;;;;;;18.35;8.95;;;;;;;20.01;81.25;98989.28;5086889;28;20023;-84
2021/07/27 07:15:14;;;;;;;14.52;8.23;;;;;;;20.07;79.85;98988.06;5086854;28;20030;-84
2021/07/27 07:17:39;;;;;;;17.35;8.90;;;;;;;20.12;82.55;98943.31;5086834;28;20230;-84
2021/07/27 07:20:05;;;;;;;15.80;9.10;;;;;;;20.17;82.99;98947.47;5086630;28;20031;-84
2021/07/27 07:22:31;;;;;;;16.38;8.95;;;;;;;20.08;81.92;98926.53;5086659;28;20027;-84
2021/07/27 07:24:57;;;;;;;18.08;9.27;;;;;;;20.03;79.20;98884.97;5086729;28;20060;-84
2021/07/27 07:27:22;;;;;;;12.93;8.57;;;;;;;19.98;80.25;98882.53;5086638;28;20311;-84
2021/07/27 07:29:48;;;;;;;16.80;8.90;;;;;;;20.02;80.87;98884.09;5086619;28;20298;-84
2021/07/27 07:32:13;;;;;;;15.07;7.95;;;;;;;20.00;79.76;98869.94;5086601;28;20089;-84
2021/07/27 07:34:39;;;;;;;18.55;8.40;;;;;;;19.97;80.94;98864.78;5086474;28;20020;-84
2021/07/27 07:37:06;;;;;;;17.00;9.30;;;;;;;19.96;81.43;98867.53;5086472;28;20020;-84
2021/07/27 07:39:33;;;;;;;15.05;9.10;;;;;;;20.00;81.77;98853.91;5086427;28;20020;-84
2021/07/27 07:41:59;;;;;;;14.60;9.13;;;;;;;20.01;80.64;98850.31;5104409;28;20047;-84
2021/07/27 07:44:24;;;;;;;17.17;9.52;;;;;;;20.01;80.56;98844.97;5086361;28;20038;-84
2021/07/27 07:46:50;;;;;;;15.93;9.30;;;;;;;20.06;79.50;98837.56;5086390;28;20023;-84
2021/07/27 07:49:16;;;;;;;15.88;9.18;;;;;;;20.11;80.95;98850.66;5086318;28;20046;-84
2021/07/27 07:51:46;;;;;;;12.65;8.68;;;;;;;20.13;79.06;98846.16;5085929;28;20012;-84
2021/07/27 07:54:12;;;;;;;16.33;9.52;;;;;;;20.23;78.71;98868.75;5104412;28;20091;-84
2021/07/27 07:56:40;;;;;;;16.42;9.38;;;;;;;20.33;78.70;98843.25;5086300;28;20016;-84
2021/07/27 07:59:06;;;;;;;16.77;8.98;;;;;;;20.46;78.78;98841.59;5086271;28;20016;-84
2021/07/27 08:01:31;;;;;;;15.85;8.95;;;;;;;20.74;77.79;98845.34;5086175;28;20026;-84
2021/07/27 08:03:56;;;;;;;13.30;8.50;;;;;;;21.07;77.33;98846.09;5085967;28;20042;-84
2021/07/27 08:06:22;;;;;;;20.73;9.70;;;;;;;21.22;76.56;98849.69;5104447;28;20044;-84
2021/07/27 08:08:47;;;;;;;14.75;9.40;;;;;;;21.42;75.24;98852.03;5086154;28;20043;-84
2021/07/27 08:11:13;;;;;;;18.50;9.32;;;;;;;21.59;76.86;98859.09;5104129;28;20016;-84
2021/07/27 08:13:38;;;;;;;15.68;8.00;;;;;;;21.67;74.45;98862.19;5104058;28;20058;-84
2021/07/27 08:16:10;;;;;;;12.63;8.90;;;;;;;21.62;74.07;98849.06;5086109;28;20099;-84
2021/07/27 08:18:37;;;;;;;17.20;8.98;;;;;;;21.59;73.72;98832.31;5086068;28;20024;-84
2021/07/27 08:21:03;;;;;;;14.90;8.57;;;;;;;21.62;74.92;98838.34;5085922;28;20024;-84
2021/07/27 08:23:29;;;;;;;13.48;8.93;;;;;;;21.68;74.83;98826.38;5085961;28;20039;-84
2021/07/27 08:25:54;;;;;;;13.75;8.90;;;;;;;21.60;73.56;98818.81;5085979;28;20020;-84
2021/07/27 08:28:20;;;;;;;15.40;8.52;;;;;;;21.57;73.64;98818.16;5086005;28;20095;-84
2021/07/27 08:30:45;;;;;;;18.58;9.05;;;;;;;21.60;74.47;98817.94;5103941;28;20016;-84
2021/07/27 08:33:10;;;;;;;14.52;8.75;;;;;;;21.69;73.40;98822.75;5085948;28;20044;-84
2021/07/27 08:35:36;;;;;;;15.18;8.55;;;;;;;21.75;73.84;98828.63;5085879;28;20100;-84
2021/07/27 08:38:01;;;;;;;13.60;9.00;;;;;;;21.86;73.89;98831.50;5085851;28;20058;-84
2021/07/27 08:40:28;;;;;;;13.45;9.15;;;;;;;21.80;72.68;98831.88;5103808;28;20044;-84
2021/07/27 08:42:56;;;;;;;17.83;9.05;;;;;;;21.87;73.93;98824.34;5085840;28;20043;-84
2021/07/27 08:45:21;;;;;;;14.30;8.45;;;;;;;22.07;73.82;98829.31;5103826;28;20334;-84
2021/07/27 08:47:48;;;;;;;17.48;9.32;;;;;;;22.27;72.68;98837.00;5085833;28;20098;-84
2021/07/27 08:50:15;;;;;;;15.52;8.57;;;;;;;22.68;71.82;98849.50;5103766;28;20012;-84
2021/07/27 08:52:41;;;;;;;14.80;8.70;;;;;;;22.95;69.46;98847.72;5085727;28;20043;-84
2021/07/27 08:55:08;;;;;;;14.95;8.82;;;;;;;23.66;68.59;98872.44;5085690;28;20053;-84
2021/07/27 08:57:33;;;;;;;15.23;8.80;;;;;;;23.48;67.04;98857.59;5085644;28;20015;-85
2021/07/27 08:59:59;;;;;;;15.93;9.25;;;;;;;23.39;68.38;98852.84;5085649;28;20042;-85
2021/07/27 09:02:29;;;;;;;15.18;8.88;;;;;;;23.04;67.97;98841.72;5103393;28;20259;-85
2021/07/27 09:05:07;;;;;;;14.25;9.80;;;;;;;23.06;68.21;98828.19;5088674;28;20016;-85
2021/07/27 09:07:33;;;;;;;14.30;9.00;;;;;;;22.96;69.78;98825.28;5089213;28;20027;-85
2021/07/27 09:09:58;;;;;;;15.25;9.98;;;;;;;22.87;68.89;98819.63;5107414;28;20203;-85
2021/07/27 09:12:24;;;;;;;16.13;9.82;;;;;;;22.54;69.07;98808.44;5089205;28;20020;-85
2021/07/27 09:14:50;;;;;;;14.82;10.52;;;;;;;22.25;70.20;98790.63;5107196;28;20023;-85
2021/07/27 09:17:23;;;;;;;18.35;10.07;;;;;;;22.44;71.16;98801.91;5089128;28;20015;-85
2021/07/27 09:19:49;;;;;;;18.40;10.73;;;;;;;22.29;69.53;98935.16;5089042;28;20134;-85
2021/07/27 09:22:14;;;;;;;16.45;10.45;;;;;;;22.37;71.01;98921.28;5089030;28;20386;-85
2021/07/27 09:24:40;;;;;;;13.57;8.35;;;;;;;22.49;70.84;98885.63;5088945;28;20019;-85
2021/07/27 09:27:08;;;;;;;15.82;9.75;;;;;;;22.54;71.29;98870.13;5088938;28;20030;-85
2021/07/27 09:29:45;;;;;;;15.23;9.80;;;;;;;22.64;69.63;98852.47;5088846;28;20215;-85
2021/07/27 09:32:19;;;;;;;17.27;9.88;;;;;;;22.60;71.17;98835.72;5088878;28;20319;-85
2021/07/27 09:34:44;;;;;;;17.13;9.98;;;;;;;22.58;69.97;98837.66;5088811;28;20023;-85
2021/07/27 09:37:10;;;;;;;18.48;9.85;;;;;;;22.74;70.06;98842.88;5088746;28;20020;-85
2021/07/27 09:39:36;;;;;;;19.13;10.82;;;;;;;22.68;69.32;98840.59;5088573;28;20019;-85
2021/07/27 09:42:03;;;;;;;17.85;9.98;;;;;;;22.92;69.60;98857.78;5088662;28;20093;-85
2021/07/27 09:44:30;;;;;;;16.60;10.77;;;;;;;22.92;69.14;98841.69;5088656;28;20042;-85
2021/07/27 09:47:00;;;;;;;18.55;11.40;;;;;;;22.67;67.65;98602.72;5088603;28;20048;-85
2021/07/27 09:49:26;;;;;;;17.05;10.85;;;;;;;22.56;69.26;98608.00;5088448;28;20020;-85
2021/07/27 09:51:53;;;;;;;20.08;10.48;;;;;;;22.51;68.71;98805.94;5088522;28;20253;-85
2021/07/27 09:54:19;;;;;;;17.48;10.70;;;;;;;22.53;69.65;98785.25;5106485;28;20026;-85
2021/07/27 09:56:45;;;;;;;19.08;10.50;;;;;;;22.51;68.90;98781.78;5088415;28;20204;-85
2021/07/27 09:59:14;;;;;;;18.40;10.88;;;;;;;22.47;70.16;98764.16;5088338;28;20026;-85
2021/07/27 10:02:08;;;;;;;15.07;10.30;;;;;;;22.35;70.73;98813.22;5088282;28;20087;-85
2021/07/27 10:04:36;;;;;;;21.50;10.95;;;;;;;22.38;70.67;98780.84;5084203;28;20059;-85
2021/07/27 10:07:03;;;;;;;18.45;10.90;;;;;;;22.40;70.07;98757.47;5088245;28;20020;-85
2021/07/27 10:09:33;;;;;;;18.73;11.25;;;;;;;22.39;69.88;98750.34;5088073;28;20020;-85
2021/07/27 10:12:10;;;;;;;16.65;10.75;;;;;;;22.42;71.19;98755.53;5106129;28;20222;-85
2021/07/27 10:14:44;;;;;;;19.77;11.85;;;;;;;22.55;70.73;98753.81;5087829;28;20019;-85
2021/07/27 10:17:10;;;;;;;16.50;10.70;;;;;;;22.55;70.76;98724.28;5087774;28;20215;-85
2021/07/27 10:19:38;;;;;;;18.63;11.43;;;;;;;22.48;70.19;98714.91;5087917;28;20027;-85
2021/07/27 10:22:07;;;;;;;16.98;10.40;;;;;;;22.35;68.48;98705.94;5087912;28;20030;-85
2021/07/27 10:24:41;;;;;;;16.77;10.80;;;;;;;22.12;70.42;98699.38;5087958;28;20278;-85
2021/07/27 10:27:16;;;;;;;17.25;10.88;;;;;;;22.18;71.68;98704.34;5087749;28;20214;-85
2021/07/27 10:29:42;;;;;;;16.35;11.50;;;;;;;22.26;72.41;98703.84;5105842;28;20016;-85
2021/07/27 10:32:26;;;;;;;20.23;12.15;;;;;;;22.24;71.29;98708.47;5088070;28;20020;-85
2021/07/27 10:34:54;;;;;;;19.02;10.75;;;;;;;22.46;70.26;98716.84;5087752;28;20046;-85
2021/07/27 10:37:19;;;;;;;16.17;11.10;;;;;;;22.39;71.75;98711.00;5087607;28;20020;-85
2021/07/27 10:39:58;;;;;;;23.10;11.00;;;;;;;22.49;70.59;98704.09;5105543;28;20374;-85
2021/07/27 10:42:25;;;;;;;16.98;10.23;;;;;;;22.38;70.96;98695.00;5087509;28;20326;-85
2021/07/27 10:44:52;;;;;;;16.70;10.43;;;;;;;22.42;71.62;98691.16;5087764;28;20020;-85
2021/07/27 10:47:25;;;;;;;18.00;10.60;;;;;;;22.50;70.13;98692.41;5087417;28;20020;-85
2021/07/27 10:49:59;;;;;;;22.13;11.73;;;;;;;22.45;70.30;98680.22;5087372;28;20104;-85
2021/07/27 10:52:26;;;;;;;18.20;11.52;;;;;;;22.34;71.75;98678.25;5087285;28;20322;-85
2021/07/27 10:54:57;;;;;;;16.38;10.77;;;;;;;22.61;69.70;98680.97;5105304;28;20020;-85
2021/07/27 10:57:31;;;;;;;14.52;9.88;;;;;;;22.58;70.32;98671.31;5105302;28;20265;-85
2021/07/27 10:59:56;;;;;;;14.05;10.38;;;;;;;22.80;70.10;98665.34;5087136;28;20023;-85
2021/07/27 11:02:23;;;;;;;25.23;10.70;;;;;;;23.16;69.20;98674.41;5086920;28;20319;-85
2021/07/27 11:04:49;;;;;;;14.60;10.15;;;;;;;23.62;66.78;98676.59;5087093;28;20031;-85
2021/07/27 11:07:16;;;;;;;21.35;10.63;;;;;;;23.96;65.95;98689.38;5087028;28;20028;-85
2021/07/27 11:09:54;;;;;;;23.60;10.93;;;;;;;24.36;69.10;98691.72;5087011;28;20086;-85
2021/07/27 11:12:36;;;;;;;18.27;10.35;;;;;;;24.76;63.55;98697.69;5086936;28;20311;-85
2021/07/27 11:15:19;;;;;;;16.83;10.57;;;;;;;24.32;60.23;98813.97;5087218;28;20043;-85
2021/07/27 11:18:16;;;;;;;17.13;9.85;;;;;;;24.22;63.46;98795.91;5086850;28;20027;-85
2021/07/27 11:20:41;;;;;;;18.02;10.40;;;;;;;24.20;63.78;98766.44;5085624;28;20054;-85
2021/07/27 11:23:12;;;;;;;16.67;10.10;;;;;;;24.25;64.07;98721.25;5086975;28;20020;-85
2021/07/27 11:25:38;;;;;;;16.58;10.20;;;;;;;24.32;66.50;98733.28;5086663;28;20016;-85
2021/07/27 11:28:15;;;;;;;17.05;10.75;;;;;;;24.36;65.35;98721.31;5103737;28;20027;-85
2021/07/27 11:30:41;;;;;;;17.40;11.05;;;;;;;24.12;64.16;98696.22;5086910;28;20012;-85
2021/07/27 11:33:09;;;;;;;15.68;9.68;;;;;;;24.45;65.25;98706.31;5086623;28;20047;-85
2021/07/27 11:35:42;;;;;;;14.15;10.20;;;;;;;24.88;66.03;98726.41;5104554;28;20095;-85
2021/07/27 11:38:08;;;;;;;18.70;11.15;;;;;;;24.87;65.72;98703.97;5086480;28;20023;-85
2021/07/27 11:40:35;;;;;;;16.33;10.52;;;;;;;25.08;61.68;98707.75;5104444;28;20016;-85
2021/07/27 11:43:05;;;;;;;17.27;9.90;;;;;;;25.35;63.56;98712.00;5086462;28;20019;-85
2021/07/27 11:45:31;;;;;;;18.35;11.52;;;;;;;25.25;61.73;98704.59;5086391;28;20051;-85
2021/07/27 11:47:56;;;;;;;15.68;10.25;;;;;;;25.38;60.89;98711.78;5086393;28;20338;-85